createdAt,value
2023-06-10T00:09:15.030Z,101864.66
2023-06-10T00:19:37.826Z,101873.59
2023-06-10T00:29:59.419Z,101874.63
2023-06-10T00:40:21.039Z,101881.06
2023-06-10T00:50:43.014Z,101880.22
2023-06-10T01:01:05.201Z,101884.47
2023-06-10T01:11:35.339Z,101879.44
2023-06-10T01:21:56.981Z,101884.00
2023-06-10T01:32:27.975Z,101891.16
2023-06-10T01:42:49.540Z,101892.72
2023-06-10T01:53:11.109Z,101893.97
2023-06-10T02:03:32.752Z,101903.13
2023-06-10T02:13:54.416Z,101919.47
2023-06-10T02:24:16.141Z,101922.59
2023-06-10T02:34:38.015Z,101932.88
2023-06-10T02:44:59.971Z,101935.03
2023-06-10T02:55:22.328Z,101925.28
2023-06-10T03:05:43.920Z,101933.41
2023-06-10T03:16:05.883Z,101935.94
2023-06-10T03:26:28.453Z,101950.25
2023-06-10T03:36:50.678Z,101947.50
2023-06-10T03:47:13.991Z,101953.41
2023-06-10T03:57:35.621Z,101953.50
2023-06-10T04:07:57.996Z,101961.16
2023-06-10T04:18:19.564Z,101962.94
2023-06-10T04:28:41.019Z,101976.38
2023-06-10T04:39:02.886Z,101957.25
2023-06-10T04:49:24.431Z,101955.50
2023-06-10T04:59:45.960Z,101951.69
2023-06-10T05:10:08.153Z,101959.41
2023-06-10T05:20:30.116Z,101966.63
2023-06-10T05:30:51.811Z,101971.53
2023-06-10T05:41:13.417Z,101968.22
2023-06-10T05:51:34.864Z,101961.66
2023-06-10T06:01:56.442Z,101973.56
2023-06-10T06:12:18.074Z,101978.59
2023-06-10T06:22:39.713Z,101976.03
2023-06-10T06:33:01.385Z,101980.72
2023-06-10T06:43:24.864Z,101982.78
2023-06-10T06:53:46.755Z,101972.88
2023-06-10T07:04:08.576Z,101988.25
2023-06-10T07:14:30.390Z,102001.50
2023-06-10T07:24:53.006Z,102000.00
2023-06-10T07:35:15.030Z,101997.75
2023-06-10T07:45:36.681Z,101989.00
2023-06-10T07:55:58.258Z,101978.19
2023-06-10T08:06:19.934Z,101971.94
2023-06-10T08:16:42.395Z,101971.97
2023-06-10T08:27:04.328Z,101966.72
2023-06-10T08:37:25.940Z,101947.53
2023-06-10T08:47:53.020Z,101961.13
2023-06-10T08:58:15.067Z,101951.59
2023-06-10T09:08:36.886Z,101939.00
2023-06-10T09:18:59.917Z,101948.97
2023-06-10T09:29:21.505Z,101928.50
2023-06-10T09:39:43.308Z,101903.84
2023-06-10T09:50:05.909Z,101911.38
2023-06-10T10:00:28.527Z,101909.72
2023-06-10T10:10:50.096Z,101905.38
2023-06-10T10:21:17.150Z,101910.78
2023-06-10T10:31:40.496Z,101897.75
2023-06-10T10:42:04.856Z,101891.13
2023-06-10T10:52:28.249Z,101889.53
2023-06-10T11:02:54.611Z,101887.28
2023-06-10T11:13:17.158Z,101880.13
2023-06-10T11:23:43.053Z,101875.81
2023-06-10T11:34:06.244Z,101867.59
2023-06-10T11:44:29.951Z,101859.44
2023-06-10T11:54:56.457Z,101846.25
2023-06-10T12:05:20.455Z,101836.34
2023-06-10T12:15:42.391Z,101828.34
2023-06-10T12:26:03.990Z,101834.56
2023-06-10T12:36:25.701Z,101822.13
2023-06-10T12:46:55.442Z,101818.38
2023-06-10T12:57:17.796Z,101812.16
2023-06-10T13:07:39.925Z,101817.50
2023-06-10T13:18:01.793Z,101805.25
2023-06-10T13:28:23.393Z,101791.94
2023-06-10T13:38:45.084Z,101787.97
2023-06-10T13:49:06.669Z,101766.94
2023-06-10T13:59:28.374Z,101768.50
2023-06-10T14:09:49.935Z,101760.38
2023-06-10T14:20:12.101Z,101746.41
2023-06-10T14:30:33.692Z,101747.84
2023-06-10T14:40:55.287Z,101738.81
2023-06-10T14:51:16.887Z,101737.47
2023-06-10T15:01:38.507Z,101740.84
2023-06-10T15:12:04.477Z,101725.91
2023-06-10T15:22:26.038Z,101705.16
2023-06-10T15:32:47.628Z,101715.50
2023-06-10T15:43:09.246Z,101699.06
2023-06-10T15:53:30.860Z,101696.00
2023-06-10T16:03:52.569Z,101685.91
2023-06-10T16:14:14.918Z,101677.19
2023-06-10T16:24:36.592Z,101654.47
2023-06-10T16:34:58.270Z,101659.56
2023-06-10T16:45:19.898Z,101651.03
2023-06-10T16:55:45.357Z,101655.75
2023-06-10T17:06:07.149Z,101653.06
2023-06-10T17:16:28.839Z,101636.13
2023-06-10T17:26:50.816Z,101648.22
2023-06-10T17:37:12.377Z,101644.69
2023-06-10T17:47:34.006Z,101651.41
2023-06-10T17:57:56.043Z,101653.50
2023-06-10T18:08:17.609Z,101656.59
2023-06-10T18:18:39.212Z,101657.94
2023-06-10T18:29:00.823Z,101654.94
2023-06-10T18:39:22.432Z,101663.72
2023-06-10T18:49:44.007Z,101665.47
2023-06-10T19:00:06.643Z,101670.84
2023-06-10T19:10:28.298Z,101675.31
2023-06-10T19:20:49.926Z,101696.00
2023-06-10T19:31:11.653Z,101714.47
2023-06-10T19:41:33.789Z,101725.91
2023-06-10T19:51:55.409Z,101730.34
2023-06-10T20:02:17.026Z,101750.75
2023-06-10T20:12:38.709Z,101767.25
2023-06-10T20:23:00.301Z,101786.44
2023-06-10T20:33:21.932Z,101791.75
2023-06-10T20:43:44.023Z,101797.44
2023-06-10T20:54:05.647Z,101809.09
2023-06-10T21:04:27.229Z,101811.91
2023-06-10T21:14:48.800Z,101809.75
2023-06-10T21:25:10.953Z,101817.94
2023-06-10T21:35:32.901Z,101830.28
2023-06-10T21:45:57.222Z,101857.91
2023-06-10T21:56:19.532Z,101859.09
2023-06-10T22:06:41.130Z,101867.47
2023-06-10T22:17:02.722Z,101858.25
2023-06-10T22:27:24.975Z,101861.38
2023-06-10T22:37:46.630Z,101866.19
2023-06-10T22:48:08.290Z,101874.31
2023-06-10T22:58:29.897Z,101868.72
2023-06-10T23:08:51.502Z,101873.94
2023-06-10T23:19:19.256Z,101873.56
2023-06-10T23:29:52.203Z,101884.13
2023-06-10T23:40:20.632Z,101891.38
2023-06-10T23:50:42.728Z,101886.75
